• Join FlightAware (Why Join?)
  • Login
  • US Flag 
11:22PM EST


 

Airport Tracker/Info


-or-


 

Live Flight TrackerFlight Track Log ✈ SWA719 ✈ 18-Apr-2014 ✈ KCLE - KBWI

Flight Track Log - Related Links

Times and Time Zones

All times are in EDT time to prevent confusion due to time zone crossing. See the SWA719 flight status page for this flight to view local times or setup timezone preferences in your user account.

Time Position Orientation Groundspeed Altitude Reporting Facility
EDT Latitude Longitude Course Direction KTS MPH feet Rate Location/Type
03:10PM 41.4231 -81.8247 87° East 255 293 1,800  Level Cleveland Center
03:11PM 41.4250 -81.7803 87° East 207 238 3,000 2,082 Climbing Cleveland Center
03:11PM 41.4264 -81.7653 83° East 209 241 3,500 2,100 Climbing Cleveland Center
03:12PM 41.4114 -81.6972 106° East 259 298 5,100 1,839 Climbing Cleveland Center
03:12PM 41.4000 -81.6817 134° Southeast 248 285 5,400 3,237 Climbing Cleveland Center
03:13PM 41.3489 -81.5981 129° Southeast 277 319 9,200 2,688 Climbing Cleveland Center
03:14PM 41.2914 -81.5042 129° Southeast 318 366 11,000 2,352 Climbing Cleveland Center
03:15PM 41.2128 -81.4344 146° Southeast 342 394 14,100 2,710 Climbing Cleveland Center
03:16PM 41.1186 -81.3847 158° South 348 400 16,600 2,274 Climbing Cleveland Center
03:17PM 41.0208 -81.3331 158° South 369 425 18,800 2,032 Climbing Cleveland Center
03:18PM 40.9203 -81.2806 158° South 379 436 20,800 1,839 Climbing Cleveland Center
03:19PM 40.8153 -81.2253 158° South 398 458 22,600 1,645 Climbing Cleveland Center
03:20PM 40.7056 -81.1686 159° South 417 480 24,200 1,161 Climbing Cleveland Center
03:21PM 40.5822 -81.1053 159° South 427 491 25,000 387 Climbing Cleveland Center
03:22PM 40.4867 -81.0008 140° Southeast 456 525 25,000  Level Cleveland Center
03:23PM 40.4058 -80.8736 130° Southeast 459 528 25,000  Level Cleveland Center
03:24PM 40.3244 -80.7483 130° Southeast 457 526 25,000  Level Cleveland Center
03:25PM 40.2292 -80.6014 130° Southeast 449 517 25,000  Level Cleveland Center
03:26PM 40.1486 -80.4808 131° Southeast 448 516 25,000  Level Cleveland Center
03:27PM 40.0706 -80.3600 130° Southeast 447 514 25,000  Level Cleveland Center
03:28PM 39.9969 -80.2317 127° Southeast 447 514 25,000  Level Cleveland Center
03:29PM 39.9425 -80.0447 111° Southeast 462 532 25,000  Level Cleveland Center
03:30PM 39.8975 -79.8900 111° Southeast 461 531 25,000  Level Cleveland Center
03:31PM 39.8508 -79.7322 111° Southeast 465 535 25,000  Level Cleveland Center
03:32PM 39.8053 -79.5756 111° Southeast 466 536 25,000  Level Cleveland Center
03:33PM 39.7650 -79.4175 108° East 464 534 25,000  Level Cleveland Center
03:35PM 39.7144 -79.2272 109° East 465 535 25,000  Level Cleveland Center
03:36PM 39.6711 -79.0703 110° East 464 534 25,000 -48 Level Cleveland Center
03:37PM 39.6300 -78.9200 110° East 463 533 24,900 -581 Descending Cleveland Center
03:38PM 39.5897 -78.7644 109° East 457 526 23,800 -1,597 Descending Cleveland Center
03:39PM 39.5497 -78.5819 106° East 436 502 21,600 -2,108 Descending Cleveland Center
03:39PM 39.5231 -78.4647 106° East 443 510 19,900 -1,889 Descending Washington Center
03:40PM 39.4967 -78.3481 106° East 433 498 18,200 -1,714 Descending Washington Center
03:41PM 39.4589 -78.1775 106° East 423 487 16,500 -1,600 Descending Washington Center
03:42PM 39.4364 -78.0531 103° East 411 473 15,000 -744 Descending Washington Center
03:43PM 39.4372 -77.9078 90° East 400 460 15,000 -246 Level Washington Center
03:44PM 39.4419 -77.7656 87° East 395 455 14,500 -756 Descending Washington Center
03:45PM 39.4422 -77.6231 90° East 395 455 13,500 -1,563 Descending Washington Center
03:46PM 39.4444 -77.4861 89° East 395 455 11,400 -1,190 Descending Washington Center
03:48PM 39.4500 -77.3333 87° East 341 392 11,000 -190 Descending Potomac TRACON
03:49PM 39.4667 -77.2167 79° East 324 373 11,000 -744 Level Potomac TRACON
03:50PM 39.4833 -77.1000 79° East 324 373 9,500 -1,381 Descending Potomac TRACON
03:51PM 39.5000 -76.9833 79° East 313 360 8,100 -1,438 Descending Potomac TRACON
03:52PM 39.4833 -76.8833 102° East 294 338 6,600 -1,617 Descending Potomac TRACON
03:53PM 39.4667 -76.7833 102° East 277 319 5,000 -1,300 Descending Potomac TRACON
03:54PM 39.4167 -76.7500 153° Southeast 263 303 4,000 -843 Descending Potomac TRACON
03:55PM 39.3833 -76.8167 237° Southwest 216 249 3,300 -496 Descending Potomac TRACON
03:56PM 39.3500 -76.8833 237° Southwest 214 246 3,000 -347 Descending Potomac TRACON
03:57PM 39.3000 -76.9000 194° South 223 257 2,600 -248 Descending Potomac TRACON
03:58PM 39.2500 -76.8833 166° South 210 242 2,500 -150 Descending Potomac TRACON
03:59PM 39.2167 -76.8500 142° Southeast 175 201 2,300 -298 Descending Potomac TRACON
04:00PM 39.1833 -76.8000 131° Southeast 172 198 1,900 -595 Descending Potomac TRACON
04:01PM 39.1833 -76.7500 90° East 139 160 1,100 -800 Descending Potomac TRACON
04:03PM 39.1667 -76.6667 150° Southeast  Level FlightAware Approximate
04:10PM 39.1754 -76.6683 150° Southeast  Level Estimated
04:11PM 39.1754 -76.6683 150° Southeast  Level Estimated